sensor_id;sensor_type;location;lat;lon;timestamp;P1;durP1;ratioP1;P2;durP2;ratioP2
11006;SDS011;8186;57.652;11.968;2023-02-15T00:00:28;19.47;;;13.23;;
11006;SDS011;8186;57.652;11.968;2023-02-15T00:02:54;21.00;;;13.97;;
11006;SDS011;8186;57.652;11.968;2023-02-15T00:05:21;19.20;;;13.80;;
11006;SDS011;8186;57.652;11.968;2023-02-15T00:07:48;20.07;;;13.13;;
11006;SDS011;8186;57.652;11.968;2023-02-15T00:10:15;22.53;;;13.77;;
11006;SDS011;8186;57.652;11.968;2023-02-15T00:12:42;20.33;;;13.57;;
11006;SDS011;8186;57.652;11.968;2023-02-15T00:15:09;18.57;;;12.37;;
11006;SDS011;8186;57.652;11.968;2023-02-15T00:17:39;23.63;;;13.87;;
11006;SDS011;8186;57.652;11.968;2023-02-15T00:20:06;19.93;;;14.20;;
11006;SDS011;8186;57.652;11.968;2023-02-15T00:22:34;20.57;;;14.07;;
11006;SDS011;8186;57.652;11.968;2023-02-15T00:25:01;18.40;;;12.20;;
11006;SDS011;8186;57.652;11.968;2023-02-15T00:27:29;20.67;;;13.70;;
11006;SDS011;8186;57.652;11.968;2023-02-15T00:29:55;21.63;;;12.97;;
11006;SDS011;8186;57.652;11.968;2023-02-15T00:32:22;21.17;;;14.23;;
11006;SDS011;8186;57.652;11.968;2023-02-15T00:34:51;19.07;;;13.23;;
11006;SDS011;8186;57.652;11.968;2023-02-15T00:37:17;20.47;;;13.13;;
11006;SDS011;8186;57.652;11.968;2023-02-15T00:39:44;23.33;;;14.07;;
11006;SDS011;8186;57.652;11.968;2023-02-15T00:42:11;21.63;;;13.73;;
11006;SDS011;8186;57.652;11.968;2023-02-15T00:44:38;24.27;;;14.90;;
11006;SDS011;8186;57.652;11.968;2023-02-15T00:47:05;22.50;;;14.93;;
11006;SDS011;8186;57.652;11.968;2023-02-15T00:49:32;21.43;;;13.67;;
11006;SDS011;8186;57.652;11.968;2023-02-15T00:52:00;26.10;;;15.67;;
11006;SDS011;8186;57.652;11.968;2023-02-15T00:54:27;23.63;;;15.83;;
11006;SDS011;8186;57.652;11.968;2023-02-15T00:56:54;21.10;;;13.87;;
11006;SDS011;8186;57.652;11.968;2023-02-15T00:59:21;23.03;;;15.67;;
11006;SDS011;8186;57.652;11.968;2023-02-15T01:01:48;22.67;;;14.53;;
11006;SDS011;8186;57.652;11.968;2023-02-15T01:04:15;21.60;;;14.77;;
11006;SDS011;8186;57.652;11.968;2023-02-15T01:06:42;23.20;;;14.50;;
11006;SDS011;8186;57.652;11.968;2023-02-15T01:09:10;21.57;;;14.53;;
11006;SDS011;8186;57.652;11.968;2023-02-15T01:11:38;21.13;;;15.37;;
11006;SDS011;8186;57.652;11.968;2023-02-15T01:14:05;22.27;;;14.53;;
11006;SDS011;8186;57.652;11.968;2023-02-15T01:16:32;21.47;;;14.63;;
11006;SDS011;8186;57.652;11.968;2023-02-15T01:18:59;22.03;;;15.23;;
11006;SDS011;8186;57.652;11.968;2023-02-15T01:21:27;22.00;;;14.70;;
11006;SDS011;8186;57.652;11.968;2023-02-15T01:23:54;19.63;;;14.83;;
11006;SDS011;8186;57.652;11.968;2023-02-15T01:26:23;22.60;;;14.93;;
11006;SDS011;8186;57.652;11.968;2023-02-15T01:28:49;24.73;;;16.20;;
11006;SDS011;8186;57.652;11.968;2023-02-15T01:31:17;20.87;;;15.33;;
11006;SDS011;8186;57.652;11.968;2023-02-15T01:33:45;18.67;;;13.87;;
11006;SDS011;8186;57.652;11.968;2023-02-15T01:36:12;19.47;;;13.83;;
11006;SDS011;8186;57.652;11.968;2023-02-15T01:38:42;21.27;;;14.60;;
11006;SDS011;8186;57.652;11.968;2023-02-15T01:41:09;20.83;;;14.10;;
11006;SDS011;8186;57.652;11.968;2023-02-15T01:43:51;23.23;;;15.60;;
11006;SDS011;8186;57.652;11.968;2023-02-15T01:46:20;20.90;;;14.73;;
11006;SDS011;8186;57.652;11.968;2023-02-15T01:48:50;21.93;;;14.73;;
11006;SDS011;8186;57.652;11.968;2023-02-15T01:51:21;20.23;;;14.80;;
11006;SDS011;8186;57.652;11.968;2023-02-15T01:53:50;21.77;;;14.07;;
11006;SDS011;8186;57.652;11.968;2023-02-15T01:56:19;19.40;;;13.93;;
11006;SDS011;8186;57.652;11.968;2023-02-15T01:58:47;22.30;;;14.07;;
11006;SDS011;8186;57.652;11.968;2023-02-15T02:01:16;18.30;;;12.87;;
11006;SDS011;8186;57.652;11.968;2023-02-15T02:03:49;21.90;;;14.17;;
11006;SDS011;8186;57.652;11.968;2023-02-15T02:06:22;17.73;;;13.53;;
11006;SDS011;8186;57.652;11.968;2023-02-15T02:08:49;20.30;;;13.53;;
11006;SDS011;8186;57.652;11.968;2023-02-15T02:11:17;18.97;;;14.20;;
11006;SDS011;8186;57.652;11.968;2023-02-15T02:13:44;20.17;;;14.57;;
11006;SDS011;8186;57.652;11.968;2023-02-15T02:16:12;19.07;;;13.33;;
11006;SDS011;8186;57.652;11.968;2023-02-15T02:18:44;19.30;;;13.27;;
11006;SDS011;8186;57.652;11.968;2023-02-15T02:21:24;20.60;;;13.83;;
11006;SDS011;8186;57.652;11.968;2023-02-15T02:24:05;22.83;;;14.17;;
11006;SDS011;8186;57.652;11.968;2023-02-15T02:29:37;18.60;;;14.07;;
11006;SDS011;8186;57.652;11.968;2023-02-15T02:35:22;24.23;;;16.47;;
11006;SDS011;8186;57.652;11.968;2023-02-15T02:37:54;21.33;;;14.93;;
11006;SDS011;8186;57.652;11.968;2023-02-15T02:40:42;25.17;;;15.23;;
11006;SDS011;8186;57.652;11.968;2023-02-15T02:43:15;21.30;;;15.00;;
11006;SDS011;8186;57.652;11.968;2023-02-15T02:45:47;21.30;;;15.73;;
11006;SDS011;8186;57.652;11.968;2023-02-15T02:48:21;20.37;;;14.80;;
11006;SDS011;8186;57.652;11.968;2023-02-15T02:50:49;24.43;;;15.93;;
11006;SDS011;8186;57.652;11.968;2023-02-15T02:53:16;21.07;;;15.17;;
11006;SDS011;8186;57.652;11.968;2023-02-15T02:55:44;24.97;;;16.50;;
11006;SDS011;8186;57.652;11.968;2023-02-15T02:58:14;23.77;;;16.33;;
11006;SDS011;8186;57.652;11.968;2023-02-15T03:00:44;24.73;;;17.17;;
11006;SDS011;8186;57.652;11.968;2023-02-15T03:03:20;23.53;;;16.93;;
11006;SDS011;8186;57.652;11.968;2023-02-15T03:05:53;24.30;;;16.63;;
11006;SDS011;8186;57.652;11.968;2023-02-15T03:08:22;28.80;;;15.87;;
11006;SDS011;8186;57.652;11.968;2023-02-15T03:10:53;26.30;;;16.67;;
11006;SDS011;8186;57.652;11.968;2023-02-15T03:13:22;25.60;;;16.47;;
11006;SDS011;8186;57.652;11.968;2023-02-15T03:15:49;24.20;;;16.00;;
11006;SDS011;8186;57.652;11.968;2023-02-15T03:18:36;24.63;;;16.27;;
11006;SDS011;8186;57.652;11.968;2023-02-15T03:21:04;25.30;;;16.60;;
11006;SDS011;8186;57.652;11.968;2023-02-15T03:23:32;24.70;;;16.60;;
11006;SDS011;8186;57.652;11.968;2023-02-15T03:26:02;24.63;;;16.73;;
11006;SDS011;8186;57.652;11.968;2023-02-15T03:28:33;24.43;;;16.20;;
11006;SDS011;8186;57.652;11.968;2023-02-15T03:31:03;24.60;;;17.43;;
11006;SDS011;8186;57.652;11.968;2023-02-15T03:33:31;25.73;;;18.17;;
11006;SDS011;8186;57.652;11.968;2023-02-15T03:36:01;27.07;;;18.60;;
11006;SDS011;8186;57.652;11.968;2023-02-15T03:38:33;26.53;;;17.37;;
11006;SDS011;8186;57.652;11.968;2023-02-15T03:41:02;24.67;;;17.17;;
11006;SDS011;8186;57.652;11.968;2023-02-15T03:43:38;24.40;;;16.77;;
11006;SDS011;8186;57.652;11.968;2023-02-15T03:46:11;24.93;;;17.23;;
11006;SDS011;8186;57.652;11.968;2023-02-15T03:48:42;25.13;;;17.70;;
11006;SDS011;8186;57.652;11.968;2023-02-15T03:51:14;27.37;;;18.83;;
11006;SDS011;8186;57.652;11.968;2023-02-15T03:54:04;26.23;;;18.20;;
11006;SDS011;8186;57.652;11.968;2023-02-15T03:56:33;29.93;;;18.70;;
11006;SDS011;8186;57.652;11.968;2023-02-15T03:59:01;25.97;;;18.20;;
11006;SDS011;8186;57.652;11.968;2023-02-15T04:01:47;26.23;;;17.10;;
11006;SDS011;8186;57.652;11.968;2023-02-15T04:04:24;27.67;;;18.70;;
11006;SDS011;8186;57.652;11.968;2023-02-15T04:06:54;28.30;;;18.27;;
11006;SDS011;8186;57.652;11.968;2023-02-15T04:09:21;27.77;;;18.03;;
11006;SDS011;8186;57.652;11.968;2023-02-15T04:12:06;27.83;;;18.80;;
11006;SDS011;8186;57.652;11.968;2023-02-15T04:14:33;29.77;;;20.27;;
11006;SDS011;8186;57.652;11.968;2023-02-15T04:17:20;23.77;;;15.83;;
11006;SDS011;8186;57.652;11.968;2023-02-15T04:19:47;28.27;;;17.60;;
11006;SDS011;8186;57.652;11.968;2023-02-15T04:22:33;30.00;;;19.00;;
11006;SDS011;8186;57.652;11.968;2023-02-15T04:25:17;30.27;;;18.03;;
11006;SDS011;8186;57.652;11.968;2023-02-15T04:27:46;28.30;;;17.90;;
11006;SDS011;8186;57.652;11.968;2023-02-15T04:30:14;34.20;;;19.00;;
11006;SDS011;8186;57.652;11.968;2023-02-15T04:32:42;30.20;;;18.80;;
11006;SDS011;8186;57.652;11.968;2023-02-15T04:35:09;33.00;;;19.13;;
11006;SDS011;8186;57.652;11.968;2023-02-15T04:37:38;30.57;;;20.10;;
11006;SDS011;8186;57.652;11.968;2023-02-15T04:40:05;30.13;;;17.60;;
11006;SDS011;8186;57.652;11.968;2023-02-15T04:42:34;32.80;;;18.60;;
11006;SDS011;8186;57.652;11.968;2023-02-15T04:45:02;33.20;;;18.43;;
11006;SDS011;8186;57.652;11.968;2023-02-15T04:47:29;29.73;;;18.40;;
11006;SDS011;8186;57.652;11.968;2023-02-15T04:49:56;27.20;;;17.97;;
11006;SDS011;8186;57.652;11.968;2023-02-15T04:52:23;30.33;;;19.37;;
11006;SDS011;8186;57.652;11.968;2023-02-15T04:54:51;29.23;;;18.20;;
11006;SDS011;8186;57.652;11.968;2023-02-15T04:57:18;28.90;;;17.67;;
11006;SDS011;8186;57.652;11.968;2023-02-15T04:59:45;30.67;;;18.67;;
11006;SDS011;8186;57.652;11.968;2023-02-15T05:02:12;31.63;;;19.80;;
11006;SDS011;8186;57.652;11.968;2023-02-15T05:04:39;31.43;;;19.47;;
11006;SDS011;8186;57.652;11.968;2023-02-15T05:07:06;28.40;;;17.83;;
11006;SDS011;8186;57.652;11.968;2023-02-15T05:09:33;31.90;;;19.50;;
11006;SDS011;8186;57.652;11.968;2023-02-15T05:12:01;31.70;;;19.20;;
11006;SDS011;8186;57.652;11.968;2023-02-15T05:14:28;33.73;;;20.70;;
11006;SDS011;8186;57.652;11.968;2023-02-15T05:16:55;29.90;;;18.60;;
11006;SDS011;8186;57.652;11.968;2023-02-15T05:19:23;32.17;;;18.87;;
11006;SDS011;8186;57.652;11.968;2023-02-15T05:21:50;29.40;;;18.23;;
11006;SDS011;8186;57.652;11.968;2023-02-15T05:24:17;31.80;;;18.93;;
11006;SDS011;8186;57.652;11.968;2023-02-15T05:27:03;31.43;;;18.93;;
11006;SDS011;8186;57.652;11.968;2023-02-15T05:29:47;30.97;;;18.33;;
11006;SDS011;8186;57.652;11.968;2023-02-15T05:32:14;31.43;;;18.90;;
11006;SDS011;8186;57.652;11.968;2023-02-15T05:34:42;27.93;;;18.43;;
11006;SDS011;8186;57.652;11.968;2023-02-15T05:37:08;29.93;;;18.43;;
11006;SDS011;8186;57.652;11.968;2023-02-15T05:39:35;28.50;;;17.67;;
11006;SDS011;8186;57.652;11.968;2023-02-15T05:42:04;29.20;;;18.30;;
11006;SDS011;8186;57.652;11.968;2023-02-15T05:44:30;31.47;;;17.37;;
11006;SDS011;8186;57.652;11.968;2023-02-15T05:46:57;29.87;;;17.77;;
11006;SDS011;8186;57.652;11.968;2023-02-15T05:49:25;27.23;;;17.23;;
11006;SDS011;8186;57.652;11.968;2023-02-15T05:51:52;27.57;;;18.27;;
11006;SDS011;8186;57.652;11.968;2023-02-15T05:54:19;29.07;;;17.50;;
11006;SDS011;8186;57.652;11.968;2023-02-15T05:56:45;27.87;;;17.43;;
11006;SDS011;8186;57.652;11.968;2023-02-15T05:59:14;28.57;;;17.90;;
11006;SDS011;8186;57.652;11.968;2023-02-15T06:01:41;28.77;;;16.70;;
11006;SDS011;8186;57.652;11.968;2023-02-15T06:04:08;26.67;;;17.43;;
11006;SDS011;8186;57.652;11.968;2023-02-15T06:06:35;31.70;;;17.93;;
11006;SDS011;8186;57.652;11.968;2023-02-15T06:09:01;30.77;;;18.80;;
11006;SDS011;8186;57.652;11.968;2023-02-15T06:11:28;27.73;;;17.83;;
11006;SDS011;8186;57.652;11.968;2023-02-15T06:13:55;28.10;;;18.20;;
11006;SDS011;8186;57.652;11.968;2023-02-15T06:16:24;30.80;;;18.67;;
11006;SDS011;8186;57.652;11.968;2023-02-15T06:18:51;28.10;;;18.37;;
11006;SDS011;8186;57.652;11.968;2023-02-15T06:21:17;28.80;;;18.87;;
11006;SDS011;8186;57.652;11.968;2023-02-15T06:23:44;27.50;;;17.57;;
11006;SDS011;8186;57.652;11.968;2023-02-15T06:26:11;27.57;;;17.40;;
11006;SDS011;8186;57.652;11.968;2023-02-15T06:28:38;26.50;;;18.23;;
11006;SDS011;8186;57.652;11.968;2023-02-15T06:31:06;29.17;;;18.07;;
11006;SDS011;8186;57.652;11.968;2023-02-15T06:33:34;29.03;;;18.13;;
11006;SDS011;8186;57.652;11.968;2023-02-15T06:36:01;27.10;;;19.27;;
11006;SDS011;8186;57.652;11.968;2023-02-15T06:38:28;26.53;;;17.63;;
11006;SDS011;8186;57.652;11.968;2023-02-15T06:40:55;26.00;;;17.93;;
11006;SDS011;8186;57.652;11.968;2023-02-15T06:43:22;26.50;;;18.47;;
11006;SDS011;8186;57.652;11.968;2023-02-15T06:45:49;26.07;;;16.60;;
11006;SDS011;8186;57.652;11.968;2023-02-15T06:48:16;26.57;;;17.07;;
11006;SDS011;8186;57.652;11.968;2023-02-15T06:50:44;25.97;;;16.47;;
11006;SDS011;8186;57.652;11.968;2023-02-15T06:53:11;27.80;;;17.53;;
11006;SDS011;8186;57.652;11.968;2023-02-15T06:55:38;25.97;;;16.63;;
11006;SDS011;8186;57.652;11.968;2023-02-15T06:58:05;26.03;;;16.77;;
11006;SDS011;8186;57.652;11.968;2023-02-15T07:00:32;28.93;;;16.70;;
11006;SDS011;8186;57.652;11.968;2023-02-15T07:02:59;25.70;;;18.17;;
11006;SDS011;8186;57.652;11.968;2023-02-15T07:05:27;24.90;;;17.07;;
11006;SDS011;8186;57.652;11.968;2023-02-15T07:07:57;24.80;;;15.80;;
11006;SDS011;8186;57.652;11.968;2023-02-15T07:10:24;27.63;;;17.97;;
11006;SDS011;8186;57.652;11.968;2023-02-15T07:12:51;27.37;;;17.60;;
11006;SDS011;8186;57.652;11.968;2023-02-15T07:15:18;28.90;;;17.30;;
11006;SDS011;8186;57.652;11.968;2023-02-15T07:17:47;24.00;;;16.80;;
11006;SDS011;8186;57.652;11.968;2023-02-15T07:20:14;26.20;;;16.37;;
11006;SDS011;8186;57.652;11.968;2023-02-15T07:22:42;28.20;;;18.40;;
11006;SDS011;8186;57.652;11.968;2023-02-15T07:25:11;29.47;;;18.73;;
11006;SDS011;8186;57.652;11.968;2023-02-15T07:27:38;27.10;;;17.73;;
11006;SDS011;8186;57.652;11.968;2023-02-15T07:30:06;26.70;;;18.27;;
11006;SDS011;8186;57.652;11.968;2023-02-15T07:32:35;28.67;;;18.73;;
11006;SDS011;8186;57.652;11.968;2023-02-15T07:35:22;27.67;;;18.03;;
11006;SDS011;8186;57.652;11.968;2023-02-15T07:37:49;25.07;;;17.00;;
11006;SDS011;8186;57.652;11.968;2023-02-15T07:40:17;28.27;;;18.80;;
11006;SDS011;8186;57.652;11.968;2023-02-15T07:42:44;27.73;;;17.57;;
11006;SDS011;8186;57.652;11.968;2023-02-15T07:45:11;32.43;;;19.07;;
11006;SDS011;8186;57.652;11.968;2023-02-15T07:47:38;30.23;;;18.07;;
11006;SDS011;8186;57.652;11.968;2023-02-15T07:50:05;29.53;;;18.10;;
11006;SDS011;8186;57.652;11.968;2023-02-15T07:52:33;28.73;;;17.97;;
11006;SDS011;8186;57.652;11.968;2023-02-15T07:55:00;25.17;;;17.50;;
11006;SDS011;8186;57.652;11.968;2023-02-15T07:57:28;31.90;;;20.33;;
11006;SDS011;8186;57.652;11.968;2023-02-15T07:59:55;31.47;;;18.87;;
11006;SDS011;8186;57.652;11.968;2023-02-15T08:02:22;27.03;;;18.93;;
11006;SDS011;8186;57.652;11.968;2023-02-15T08:04:49;32.53;;;18.80;;
11006;SDS011;8186;57.652;11.968;2023-02-15T08:07:16;29.73;;;18.70;;
11006;SDS011;8186;57.652;11.968;2023-02-15T08:09:43;33.43;;;19.13;;
11006;SDS011;8186;57.652;11.968;2023-02-15T08:12:10;30.87;;;20.30;;
11006;SDS011;8186;57.652;11.968;2023-02-15T08:14:38;30.47;;;19.67;;
11006;SDS011;8186;57.652;11.968;2023-02-15T08:17:05;35.33;;;18.63;;
11006;SDS011;8186;57.652;11.968;2023-02-15T08:19:32;29.03;;;18.53;;
11006;SDS011;8186;57.652;11.968;2023-02-15T08:22:00;30.77;;;17.87;;
11006;SDS011;8186;57.652;11.968;2023-02-15T08:24:29;28.67;;;17.90;;
11006;SDS011;8186;57.652;11.968;2023-02-15T08:26:57;29.63;;;18.93;;
11006;SDS011;8186;57.652;11.968;2023-02-15T08:29:25;30.87;;;19.00;;
11006;SDS011;8186;57.652;11.968;2023-02-15T08:31:55;31.13;;;18.07;;
11006;SDS011;8186;57.652;11.968;2023-02-15T08:34:23;27.87;;;18.13;;
11006;SDS011;8186;57.652;11.968;2023-02-15T08:36:51;30.87;;;18.57;;
11006;SDS011;8186;57.652;11.968;2023-02-15T08:39:18;31.77;;;19.37;;
11006;SDS011;8186;57.652;11.968;2023-02-15T08:41:45;31.37;;;19.50;;
11006;SDS011;8186;57.652;11.968;2023-02-15T08:44:13;29.43;;;18.53;;
11006;SDS011;8186;57.652;11.968;2023-02-15T08:46:42;28.83;;;18.47;;
11006;SDS011;8186;57.652;11.968;2023-02-15T08:49:11;29.70;;;18.20;;
11006;SDS011;8186;57.652;11.968;2023-02-15T08:51:39;28.97;;;17.63;;
11006;SDS011;8186;57.652;11.968;2023-02-15T08:54:06;28.13;;;18.27;;
11006;SDS011;8186;57.652;11.968;2023-02-15T08:56:35;30.30;;;18.83;;
11006;SDS011;8186;57.652;11.968;2023-02-15T08:59:03;30.40;;;19.37;;
11006;SDS011;8186;57.652;11.968;2023-02-15T09:01:31;27.07;;;17.40;;
11006;SDS011;8186;57.652;11.968;2023-02-15T09:04:00;27.90;;;17.40;;
11006;SDS011;8186;57.652;11.968;2023-02-15T09:06:30;25.33;;;17.23;;
11006;SDS011;8186;57.652;11.968;2023-02-15T09:08:57;30.47;;;16.53;;
11006;SDS011;8186;57.652;11.968;2023-02-15T09:11:25;28.83;;;17.67;;
11006;SDS011;8186;57.652;11.968;2023-02-15T09:13:54;28.97;;;17.37;;
11006;SDS011;8186;57.652;11.968;2023-02-15T09:16:23;31.17;;;18.03;;
11006;SDS011;8186;57.652;11.968;2023-02-15T09:18:54;27.67;;;17.10;;
11006;SDS011;8186;57.652;11.968;2023-02-15T09:21:23;28.17;;;17.60;;
11006;SDS011;8186;57.652;11.968;2023-02-15T09:23:55;31.73;;;19.17;;
11006;SDS011;8186;57.652;11.968;2023-02-15T09:26:25;32.50;;;20.23;;
11006;SDS011;8186;57.652;11.968;2023-02-15T09:28:54;26.77;;;18.20;;
11006;SDS011;8186;57.652;11.968;2023-02-15T09:31:22;29.73;;;18.43;;
11006;SDS011;8186;57.652;11.968;2023-02-15T09:33:50;29.30;;;19.27;;
11006;SDS011;8186;57.652;11.968;2023-02-15T09:36:18;27.70;;;18.57;;
11006;SDS011;8186;57.652;11.968;2023-02-15T09:38:47;30.43;;;19.63;;
11006;SDS011;8186;57.652;11.968;2023-02-15T09:41:23;31.73;;;20.00;;
11006;SDS011;8186;57.652;11.968;2023-02-15T09:44:01;25.93;;;16.97;;
11006;SDS011;8186;57.652;11.968;2023-02-15T09:46:40;28.23;;;19.20;;
11006;SDS011;8186;57.652;11.968;2023-02-15T09:49:16;27.13;;;18.63;;
11006;SDS011;8186;57.652;11.968;2023-02-15T09:52:01;29.23;;;19.60;;
11006;SDS011;8186;57.652;11.968;2023-02-15T09:54:43;31.77;;;19.43;;
11006;SDS011;8186;57.652;11.968;2023-02-15T09:57:19;27.03;;;18.50;;
11006;SDS011;8186;57.652;11.968;2023-02-15T09:59:51;29.00;;;18.00;;
11006;SDS011;8186;57.652;11.968;2023-02-15T10:02:27;29.23;;;19.77;;
11006;SDS011;8186;57.652;11.968;2023-02-15T10:05:08;30.70;;;19.33;;
11006;SDS011;8186;57.652;11.968;2023-02-15T10:07:47;26.97;;;18.77;;
11006;SDS011;8186;57.652;11.968;2023-02-15T10:10:24;28.90;;;18.93;;
11006;SDS011;8186;57.652;11.968;2023-02-15T10:13:00;27.80;;;20.43;;
11006;SDS011;8186;57.652;11.968;2023-02-15T10:15:38;26.57;;;19.63;;
11006;SDS011;8186;57.652;11.968;2023-02-15T10:18:23;31.73;;;21.30;;
11006;SDS011;8186;57.652;11.968;2023-02-15T10:21:03;29.10;;;20.07;;
11006;SDS011;8186;57.652;11.968;2023-02-15T10:23:41;25.47;;;17.67;;
11006;SDS011;8186;57.652;11.968;2023-02-15T10:26:16;26.53;;;18.97;;
11006;SDS011;8186;57.652;11.968;2023-02-15T10:28:48;24.70;;;19.47;;
11006;SDS011;8186;57.652;11.968;2023-02-15T10:31:23;29.57;;;20.03;;
11006;SDS011;8186;57.652;11.968;2023-02-15T10:34:06;30.67;;;20.20;;
11006;SDS011;8186;57.652;11.968;2023-02-15T10:36:55;30.03;;;19.70;;
11006;SDS011;8186;57.652;11.968;2023-02-15T10:39:41;32.17;;;22.95;;
11006;SDS011;8186;57.652;11.968;2023-02-15T10:42:17;30.73;;;19.87;;
11006;SDS011;8186;57.652;11.968;2023-02-15T10:44:55;30.27;;;18.53;;
11006;SDS011;8186;57.652;11.968;2023-02-15T10:47:41;28.13;;;19.30;;
11006;SDS011;8186;57.652;11.968;2023-02-15T10:50:29;27.20;;;17.33;;
11006;SDS011;8186;57.652;11.968;2023-02-15T10:56:05;29.57;;;18.33;;
11006;SDS011;8186;57.652;11.968;2023-02-15T10:58:41;29.10;;;16.63;;
11006;SDS011;8186;57.652;11.968;2023-02-15T11:01:18;26.83;;;17.43;;
11006;SDS011;8186;57.652;11.968;2023-02-15T11:03:52;24.80;;;16.20;;
11006;SDS011;8186;57.652;11.968;2023-02-15T11:06:31;27.00;;;16.53;;
11006;SDS011;8186;57.652;11.968;2023-02-15T11:09:01;27.20;;;16.67;;
11006;SDS011;8186;57.652;11.968;2023-02-15T11:11:30;25.73;;;16.23;;
11006;SDS011;8186;57.652;11.968;2023-02-15T11:13:59;31.50;;;16.43;;
11006;SDS011;8186;57.652;11.968;2023-02-15T11:16:29;27.07;;;16.20;;
11006;SDS011;8186;57.652;11.968;2023-02-15T11:18:59;29.10;;;17.03;;
11006;SDS011;8186;57.652;11.968;2023-02-15T11:21:31;27.13;;;16.43;;
11006;SDS011;8186;57.652;11.968;2023-02-15T11:24:07;27.93;;;16.20;;
11006;SDS011;8186;57.652;11.968;2023-02-15T11:26:37;24.67;;;15.93;;
11006;SDS011;8186;57.652;11.968;2023-02-15T11:29:08;26.30;;;17.33;;
11006;SDS011;8186;57.652;11.968;2023-02-15T11:31:42;26.97;;;17.67;;
11006;SDS011;8186;57.652;11.968;2023-02-15T11:34:13;28.47;;;17.37;;
11006;SDS011;8186;57.652;11.968;2023-02-15T11:36:43;27.93;;;17.83;;
11006;SDS011;8186;57.652;11.968;2023-02-15T11:39:12;29.60;;;18.30;;
11006;SDS011;8186;57.652;11.968;2023-02-15T11:41:41;31.00;;;17.43;;
11006;SDS011;8186;57.652;11.968;2023-02-15T11:44:11;26.57;;;17.60;;
11006;SDS011;8186;57.652;11.968;2023-02-15T11:46:42;31.07;;;19.50;;
11006;SDS011;8186;57.652;11.968;2023-02-15T11:49:13;31.97;;;19.17;;
11006;SDS011;8186;57.652;11.968;2023-02-15T11:51:48;34.10;;;20.10;;
11006;SDS011;8186;57.652;11.968;2023-02-15T11:54:15;28.83;;;18.30;;
11006;SDS011;8186;57.652;11.968;2023-02-15T11:56:43;29.47;;;18.20;;
11006;SDS011;8186;57.652;11.968;2023-02-15T11:59:11;29.83;;;18.20;;
11006;SDS011;8186;57.652;11.968;2023-02-15T12:01:42;28.50;;;19.13;;
11006;SDS011;8186;57.652;11.968;2023-02-15T12:04:15;30.27;;;18.87;;
11006;SDS011;8186;57.652;11.968;2023-02-15T12:06:49;35.50;;;19.83;;
11006;SDS011;8186;57.652;11.968;2023-02-15T12:09:20;32.13;;;19.93;;
11006;SDS011;8186;57.652;11.968;2023-02-15T12:11:52;38.33;;;20.73;;
11006;SDS011;8186;57.652;11.968;2023-02-15T12:14:19;32.17;;;21.10;;
11006;SDS011;8186;57.652;11.968;2023-02-15T12:16:48;32.83;;;20.80;;
11006;SDS011;8186;57.652;11.968;2023-02-15T12:22:03;31.03;;;20.37;;
11006;SDS011;8186;57.652;11.968;2023-02-15T12:24:32;38.53;;;23.13;;
11006;SDS011;8186;57.652;11.968;2023-02-15T12:27:01;36.87;;;22.40;;
11006;SDS011;8186;57.652;11.968;2023-02-15T12:29:29;34.57;;;21.50;;
11006;SDS011;8186;57.652;11.968;2023-02-15T12:31:58;32.43;;;20.50;;
11006;SDS011;8186;57.652;11.968;2023-02-15T12:34:27;33.60;;;19.57;;
11006;SDS011;8186;57.652;11.968;2023-02-15T12:36:56;35.00;;;21.87;;
11006;SDS011;8186;57.652;11.968;2023-02-15T12:39:27;30.47;;;19.90;;
11006;SDS011;8186;57.652;11.968;2023-02-15T12:42:05;37.47;;;22.83;;
11006;SDS011;8186;57.652;11.968;2023-02-15T12:44:52;30.73;;;20.50;;
11006;SDS011;8186;57.652;11.968;2023-02-15T12:47:22;33.53;;;20.63;;
11006;SDS011;8186;57.652;11.968;2023-02-15T12:50:05;30.97;;;19.83;;
11006;SDS011;8186;57.652;11.968;2023-02-15T12:52:36;30.30;;;19.17;;
11006;SDS011;8186;57.652;11.968;2023-02-15T12:55:10;31.57;;;20.90;;
11006;SDS011;8186;57.652;11.968;2023-02-15T12:57:44;33.60;;;20.80;;
11006;SDS011;8186;57.652;11.968;2023-02-15T13:00:25;32.27;;;20.73;;
11006;SDS011;8186;57.652;11.968;2023-02-15T13:02:55;29.33;;;18.40;;
11006;SDS011;8186;57.652;11.968;2023-02-15T13:05:25;30.33;;;19.97;;
11006;SDS011;8186;57.652;11.968;2023-02-15T13:07:54;28.37;;;18.33;;
11006;SDS011;8186;57.652;11.968;2023-02-15T13:10:23;34.93;;;20.27;;
11006;SDS011;8186;57.652;11.968;2023-02-15T13:12:52;36.00;;;21.87;;
11006;SDS011;8186;57.652;11.968;2023-02-15T13:15:24;35.43;;;20.90;;
11006;SDS011;8186;57.652;11.968;2023-02-15T13:17:52;33.83;;;19.07;;
11006;SDS011;8186;57.652;11.968;2023-02-15T13:20:23;29.90;;;18.90;;
11006;SDS011;8186;57.652;11.968;2023-02-15T13:22:52;32.07;;;20.23;;
11006;SDS011;8186;57.652;11.968;2023-02-15T13:25:22;33.43;;;20.10;;
11006;SDS011;8186;57.652;11.968;2023-02-15T13:27:52;35.07;;;17.47;;
11006;SDS011;8186;57.652;11.968;2023-02-15T13:30:25;32.70;;;19.80;;
11006;SDS011;8186;57.652;11.968;2023-02-15T13:32:54;31.70;;;19.03;;
11006;SDS011;8186;57.652;11.968;2023-02-15T13:35:24;31.30;;;17.97;;
11006;SDS011;8186;57.652;11.968;2023-02-15T13:40:48;29.93;;;18.93;;
11006;SDS011;8186;57.652;11.968;2023-02-15T13:43:22;29.70;;;18.80;;
11006;SDS011;8186;57.652;11.968;2023-02-15T13:45:57;31.27;;;20.57;;
11006;SDS011;8186;57.652;11.968;2023-02-15T13:48:36;28.47;;;17.77;;
11006;SDS011;8186;57.652;11.968;2023-02-15T13:51:11;28.03;;;16.87;;
11006;SDS011;8186;57.652;11.968;2023-02-15T13:53:45;32.70;;;19.93;;
11006;SDS011;8186;57.652;11.968;2023-02-15T13:56:23;32.20;;;20.10;;
11006;SDS011;8186;57.652;11.968;2023-02-15T13:59:02;32.57;;;19.90;;
11006;SDS011;8186;57.652;11.968;2023-02-15T14:01:49;28.43;;;18.27;;
11006;SDS011;8186;57.652;11.968;2023-02-15T14:04:28;29.67;;;18.73;;
11006;SDS011;8186;57.652;11.968;2023-02-15T14:07:16;32.53;;;19.23;;
11006;SDS011;8186;57.652;11.968;2023-02-15T14:09:52;28.30;;;18.87;;
11006;SDS011;8186;57.652;11.968;2023-02-15T14:12:31;31.67;;;19.07;;
11006;SDS011;8186;57.652;11.968;2023-02-15T14:15:12;28.87;;;18.73;;
11006;SDS011;8186;57.652;11.968;2023-02-15T14:17:48;28.43;;;18.33;;
11006;SDS011;8186;57.652;11.968;2023-02-15T14:20:22;29.90;;;18.43;;
11006;SDS011;8186;57.652;11.968;2023-02-15T14:22:53;29.33;;;16.73;;
11006;SDS011;8186;57.652;11.968;2023-02-15T14:25:28;28.33;;;17.50;;
11006;SDS011;8186;57.652;11.968;2023-02-15T14:28:01;26.73;;;16.93;;
11006;SDS011;8186;57.652;11.968;2023-02-15T14:30:33;26.03;;;16.97;;
11006;SDS011;8186;57.652;11.968;2023-02-15T14:33:04;26.33;;;17.30;;
11006;SDS011;8186;57.652;11.968;2023-02-15T14:35:34;27.83;;;16.93;;
11006;SDS011;8186;57.652;11.968;2023-02-15T14:38:04;28.03;;;17.10;;
11006;SDS011;8186;57.652;11.968;2023-02-15T14:40:36;27.53;;;17.03;;
11006;SDS011;8186;57.652;11.968;2023-02-15T14:43:27;27.53;;;17.53;;
11006;SDS011;8186;57.652;11.968;2023-02-15T14:46:00;29.40;;;17.40;;
11006;SDS011;8186;57.652;11.968;2023-02-15T14:48:33;28.73;;;16.83;;
11006;SDS011;8186;57.652;11.968;2023-02-15T14:51:06;28.17;;;17.73;;
11006;SDS011;8186;57.652;11.968;2023-02-15T14:53:37;25.53;;;16.77;;
11006;SDS011;8186;57.652;11.968;2023-02-15T14:56:06;26.80;;;17.63;;